Indianapolis, Iowa
Current Conditions -  °F | °C
As of 5:15 AM on Friday 24 Oct 2014 (Local Time) from KOOA Reporting Station
Light Rain Light Rain  
Wind Chill: 52°   Ceiling: 100
Heat Index: 52°   Visibility: 0.25mi
Dew Point: 51°   Wind: 8mph
Humidity: 97%   Direction: 220°SW
Pressure: 30.05"   Gusts: NA
Location:  41.3798°N, 92.3541°W
Report Text: KOOA 241015Z AUTO 22007KT 1/4SM -RA OVC001 11/11 A3005 RMK AO2 T01100106
Loading
Personal Weather Stations






























Interactive Weather Map
Tropical Storm Tracking
New forecast layout! Learn more

10-Day Weather Forecast

Advertisements
Track Severe Weather on mobile